North Conway, NH

2:52 PM EDT on March 28, 2015 (GMT -0400)
101 Pollard St | | Change Station
CLOSE
Current Station
Personal Weather Station
Location: Conway, NH
Elevation: 489 ft
Nearby Weather Stations

Elev 489 ft 43.98 °N, 71.11 °W | Updated 17 seconds ago

Clear
Clear
36.9 °F
Feels Like 37 °F
N
2.3
Wind Variable Wind from North
Gusts 0.0 mph

Today
High -- | Low -- °F
--% Chance of Precip.
Yesterday
High -- | Low -- °F
Precip. -- in
6:33 AM 7:06 PM
Waxing Gibbous, 64% visible
Pressure 29.81 in
Visibility 10.0 miles
Clouds Overcast 5500 ft
Windchill 37 °F
Dew Point 24 °F
Humidity 59%
Rainfall 0.00 in
Snow Depth Not available.
UV 2 out of 12
Pollen .70 out of 12
Air Quality Not available.
Flu Activity Not available.
METAR KIZG 281754Z AUTO 36011KT 10SM OVC055 02/M06 A2979 RMK AO2 SLP093 60000 T00171056 10022 21006 58015

More Conditions Fewer Conditions

Pressure 29.81 in
Visibility 10.0 miles
Clouds Overcast 5500 ft
Windchill 37 °F
Dew Point 24 °F
Humidity 59%
Rainfall 0.00 in
Snow Depth Not available.
UV 2 out of 12
Pollen .70 out of 12
Air Quality Not available.
Flu Activity Not available.
METAR KIZG 281754Z AUTO 36011KT 10SM OVC055 02/M06 A2979 RMK AO2 SLP093 60000 T00171056 10022 21006 58015

More Conditions Fewer Conditions

10-Day Weather Forecast

Almanac

Astronomy

Mar. 28, 2015 Rise Set
Actual Time
Civil Twilight
Nautical Twilight
Astronomical Twilight
Moon
Length of Visible Light
Length of Day
Tomorrow will be .
, % of the Moon is Illuminated

Today's Extremes

State Highs State Lows

Community

WunderPhotos

Upload Photos

1,809,055 photos uploaded!

WunderBlogs® & News

Nearby

Air Quality

  Air Quality AQ Index Pollutant
Not available.

Snow Depth

Station Depth Elevation

Earthquake Activity

City Distance Mag. Time & Date
Minimum magnitude displayed is 2.5.

Coastal Water Temperatures

Place Temperature

Stations

Nearby Weather Stations

Station Location Temp. Windchill Dew Point Humidity Wind Precip. Elev Updated Type